Apex, New York
Current Conditions -  °F | °C
As of 7:15 PM on Friday 28 Nov 2014 (Local Time) from KMSV Reporting Station
Clear Clear  
Wind Chill:   Ceiling: Unl
Heat Index: 18°   Visibility: 10mi
Dew Point: 10°   Wind: 7mph
Humidity: 73%   Direction: 310°NW
Pressure: 30.17"   Gusts: NA
Location:  41.9099°N, 75.1815°W
Report Text: KMSV 290015Z AUTO 31006KT 10SM CLR M08/M12 A3017 RMK AO1
Loading
Personal Weather Stations






























Interactive Weather Map New forecast layout! Learn more

10-Day Weather Forecast

Advertisements
Track Severe Weather on mobile